Time;durP1;ratioP1;P1;durP2;ratioP2;P2;SDS_P1;SDS_P2;PMS_P1;PMS_P2;Temp;Humidity;BMP_temperature;BMP_pressure;BME280_temperature;BME280_humidity;BME280_pressure;Samples;Min_cycle;Max_cycle;Signal;HPM_P1;HPM_P2
2021/06/07 00:01:14;;;;;;;0.70;0.70;;;;;;;15.20;85.38;101595.13;5072348;28;20052;-89
2021/06/07 00:03:42;;;;;;;0.70;0.70;;;;;;;15.09;84.29;101558.75;5071755;28;20045;-88
2021/06/07 00:06:10;;;;;;;0.77;0.77;;;;;;;15.27;84.68;101593.69;5049991;28;20950;-89
2021/06/07 00:08:38;;;;;;;0.68;0.68;;;;;;;15.23;84.85;101587.16;5051931;28;20059;-88
2021/06/07 00:11:24;;;;;;;0.70;0.70;;;;;;;15.19;85.20;101591.56;5073161;28;20067;-89
2021/06/07 00:18:19;;;;;;;0.60;0.60;;;;;;;15.12;83.98;101569.97;5052100;28;20040;-88
2021/06/07 00:20:50;;;;;;;0.70;0.70;;;;;;;15.27;83.91;101598.34;5060825;28;20061;-89
2021/06/07 00:24:13;;;;;;;0.77;0.60;;;;;;;15.23;85.07;101600.03;5044533;28;20063;-89
2021/06/07 00:27:09;;;;;;;0.70;0.70;;;;;;;15.22;83.94;101599.22;5061090;28;20059;-88
2021/06/07 00:30:05;;;;;;;0.73;0.70;;;;;;;15.16;85.13;101599.53;5040642;28;20050;-89
2021/06/07 00:33:01;;;;;;;0.60;0.60;;;;;;;15.14;84.68;101603.38;5059393;28;20055;-89
2021/06/07 00:35:46;;;;;;;0.70;0.70;;;;;;;15.06;85.49;101601.25;5054546;28;20060;-88
2021/06/07 00:38:14;;;;;;;0.70;0.70;;;;;;;14.93;85.49;101589.06;5051983;28;20052;-88
2021/06/07 00:40:55;;;;;;;0.80;0.80;;;;;;;14.99;85.00;101581.59;5051940;28;20437;-88
2021/06/07 00:44:24;;;;;;;0.73;0.73;;;;;;;15.11;84.70;101594.94;5058727;28;20051;-88
2021/06/07 00:47:19;;;;;;;0.70;0.70;;;;;;;15.00;85.56;101594.22;5065148;28;20084;-88
2021/06/07 00:50:34;;;;;;;0.73;0.60;;;;;;;14.98;85.65;101587.38;5053384;28;20044;-88
2021/06/07 00:53:13;;;;;;;1.02;0.77;;;;;;;14.96;85.16;101593.16;5038962;28;20370;-88
2021/06/07 00:55:59;;;;;;;0.70;0.70;;;;;;;14.88;85.67;101585.53;5049974;28;20060;-88
2021/06/07 00:58:30;;;;;;;0.70;0.70;;;;;;;14.84;85.89;101585.28;5052003;28;20080;-88
2021/06/07 01:02:01;;;;;;;0.70;0.70;;;;;;;14.94;85.73;101596.19;5043478;28;20053;-89
2021/06/07 01:04:40;;;;;;;0.77;0.75;;;;;;;14.95;84.71;101588.75;5030572;28;20049;-89
2021/06/07 01:07:42;;;;;;;0.73;0.73;;;;;;;14.92;84.95;101603.03;5057518;28;20056;-88
2021/06/07 01:14:35;;;;;;;0.80;0.80;;;;;;;14.56;85.22;101545.75;5063706;28;20040;-87
2021/06/07 01:17:05;;;;;;;0.75;0.75;;;;;;;14.81;85.56;101590.53;5060837;28;20053;-87
2021/06/07 01:19:37;;;;;;;0.70;0.70;;;;;;;14.88;84.91;101593.75;5051153;28;20496;-88
2021/06/07 01:22:27;;;;;;;0.80;0.80;;;;;;;14.91;84.71;101593.19;5038648;28;20045;-90
2021/06/07 01:25:00;;;;;;;0.70;0.70;;;;;;;14.85;84.42;101581.44;5034861;28;20053;-88
2021/06/07 01:27:33;;;;;;;0.80;0.75;;;;;;;14.79;85.74;101599.03;5058099;28;20484;-87
2021/06/07 01:30:31;;;;;;;0.80;0.80;;;;;;;14.75;85.73;101587.03;5053202;28;20049;-86
2021/06/07 01:33:00;;;;;;;0.90;0.80;;;;;;;14.73;85.90;101579.06;5050591;28;20047;-88
2021/06/07 01:35:28;;;;;;;0.70;0.70;;;;;;;14.78;85.76;101583.69;5065007;28;20053;-87
2021/06/07 01:38:14;;;;;;;0.88;0.80;;;;;;;14.67;86.37;101574.75;5035410;28;20064;-88
2021/06/07 01:40:49;;;;;;;0.88;0.88;;;;;;;14.70;85.99;101576.91;5051980;28;20486;-89
2021/06/07 01:43:44;;;;;;;0.80;0.80;;;;;;;14.84;86.17;101595.44;5040718;28;20052;-89
2021/06/07 01:46:44;;;;;;;0.85;0.85;;;;;;;14.85;85.75;101589.66;5055546;28;20044;-88
2021/06/07 01:50:14;;;;;;;1.08;0.98;;;;;;;14.79;85.97;101597.13;5073192;28;20044;-87
2021/06/07 01:57:13;;;;;;;1.52;1.00;;;;;;;14.80;86.16;101608.88;5076595;28;20059;-87
2021/06/07 02:04:11;;;;;;;1.17;1.00;;;;;;;14.89;85.64;101584.44;5064754;28;20040;-88
2021/06/07 02:11:10;;;;;;;0.93;0.90;;;;;;;14.73;86.38;101584.53;5053717;28;20056;-88
2021/06/07 02:18:07;;;;;;;1.17;0.80;;;;;;;14.64;86.09;101575.31;5042246;28;20052;-87
2021/06/07 02:21:06;;;;;;;1.48;1.00;;;;;;;14.68;85.66;101584.59;5040167;28;20053;-88
2021/06/07 02:23:42;;;;;;;0.70;0.70;;;;;;;14.62;86.11;101591.19;5054498;28;20412;-88
2021/06/07 02:26:38;;;;;;;1.02;0.90;;;;;;;14.64;85.95;101583.53;5061374;28;20053;-88
2021/06/07 02:29:13;;;;;;;0.82;0.82;;;;;;;14.46;85.96;101576.78;5053760;28;20051;-88
2021/06/07 02:31:46;;;;;;;0.98;0.88;;;;;;;14.44;86.37;101577.06;5050384;28;20060;-88
2021/06/07 02:34:24;;;;;;;1.15;0.95;;;;;;;14.50;86.74;101588.81;5040776;28;20045;-88
2021/06/07 02:41:27;;;;;;;0.80;0.80;;;;;;;14.49;86.07;101587.16;5056060;28;20710;-87
2021/06/07 02:44:47;;;;;;;0.88;0.85;;;;;;;14.57;86.24;101599.41;5033998;28;20061;-88
2021/06/07 02:47:44;;;;;;;0.88;0.88;;;;;;;14.59;85.76;101600.78;5065730;28;20484;-89
2021/06/07 02:50:18;;;;;;;1.00;0.90;;;;;;;14.49;86.25;101598.13;5054896;28;20041;-87
2021/06/07 02:56:28;;;;;;;0.70;0.70;;;;;;;14.49;86.49;101600.03;5033701;28;20057;-86
2021/06/07 02:59:53;;;;;;;0.70;0.70;;;;;;;14.46;86.44;101602.25;5039746;28;20060;-88
2021/06/07 03:02:25;;;;;;;1.10;1.00;;;;;;;14.20;86.19;101565.97;5040781;28;20056;-88
2021/06/07 03:05:04;;;;;;;1.17;0.93;;;;;;;14.34;87.07;101592.75;5053487;28;20539;-88
2021/06/07 03:12:28;;;;;;;1.40;1.00;;;;;;;14.40;86.51;101603.38;5033322;28;20049;-87
2021/06/07 03:15:25;;;;;;;0.80;0.80;;;;;;;14.43;86.91;101600.06;5050121;28;20053;-88
2021/06/07 03:17:53;;;;;;;1.23;1.00;;;;;;;14.45;86.03;101603.34;5035847;28;20053;-87
2021/06/07 03:20:25;;;;;;;1.02;0.93;;;;;;;14.43;86.21;101594.59;5044782;28;20404;-87
2021/06/07 03:23:08;;;;;;;1.17;0.98;;;;;;;14.29;86.28;101585.34;5050781;28;20516;-87
2021/06/07 03:29:39;;;;;;;1.20;0.90;;;;;;;14.37;86.43;101590.22;5052179;28;20063;-88
2021/06/07 03:32:10;;;;;;;0.80;0.80;;;;;;;14.41;86.03;101594.03;5046455;28;20049;-88
2021/06/07 03:34:39;;;;;;;1.15;0.90;;;;;;;14.29;87.00;101579.88;5032759;28;20053;-89
2021/06/07 03:37:12;;;;;;;1.23;0.88;;;;;;;14.21;86.56;101564.88;5041407;28;20056;-87
2021/06/07 03:39:41;;;;;;;1.20;0.90;;;;;;;14.45;86.07;101602.53;5049074;28;20049;-88
2021/06/07 03:42:09;;;;;;;0.93;0.80;;;;;;;14.52;85.75;101599.47;5032249;28;20046;-88
2021/06/07 03:44:37;;;;;;;1.52;0.98;;;;;;;14.55;85.89;101596.97;5047644;28;20382;-89
2021/06/07 03:47:11;;;;;;;1.27;1.00;;;;;;;14.54;86.34;101594.50;5032237;28;20057;-88
2021/06/07 03:49:39;;;;;;;1.05;0.95;;;;;;;14.32;86.86;101570.28;5032575;28;20053;-88
2021/06/07 03:52:11;;;;;;;1.00;0.90;;;;;;;14.44;86.55;101592.66;5035014;28;20068;-88
2021/06/07 03:54:39;;;;;;;1.15;0.90;;;;;;;14.47;85.97;101592.09;5032797;28;20054;-88
2021/06/07 03:57:12;;;;;;;1.10;1.00;;;;;;;14.45;85.88;101580.63;5032352;28;20513;-88
2021/06/07 03:59:45;;;;;;;1.00;0.90;;;;;;;14.35;85.65;101567.81;5052281;28;20135;-87
2021/06/07 04:03:08;;;;;;;1.15;1.05;;;;;;;14.52;85.83;101596.72;5034046;28;20060;-87
2021/06/07 04:05:44;;;;;;;1.67;1.00;;;;;;;14.40;86.97;101588.84;5034582;28;20056;-87
2021/06/07 04:08:17;;;;;;;1.50;0.95;;;;;;;14.49;86.52;101603.59;5042317;28;20744;-88
2021/06/07 04:11:11;;;;;;;1.80;1.00;;;;;;;14.54;86.48;101610.94;5036659;28;20044;-88
2021/06/07 04:13:47;;;;;;;1.20;1.10;;;;;;;14.56;86.19;101598.63;5053340;28;20068;-88
2021/06/07 04:16:15;;;;;;;1.10;1.00;;;;;;;14.58;85.98;101596.41;5036516;28;20053;-87
2021/06/07 04:18:48;;;;;;;1.33;1.00;;;;;;;14.57;86.77;101596.69;5041348;28;20406;-88
2021/06/07 04:25:37;;;;;;;1.45;1.10;;;;;;;14.68;85.81;101605.69;5039659;28;20041;-88
2021/06/07 04:28:28;;;;;;;1.38;1.00;;;;;;;14.56;85.65;101589.59;5034963;28;20053;-89
2021/06/07 04:31:30;;;;;;;1.42;1.30;;;;;;;14.63;86.08;101617.50;5041898;28;20041;-86
2021/06/07 04:38:37;;;;;;;1.77;1.30;;;;;;;14.56;87.32;101615.03;5048363;28;20667;-88
2021/06/07 04:45:37;;;;;;;1.30;1.20;;;;;;;14.71;87.07;101608.69;5046430;28;20509;-87
2021/06/07 04:48:34;;;;;;;1.30;1.20;;;;;;;14.83;86.18;101618.47;5037690;28;20045;-89
2021/06/07 04:51:35;;;;;;;1.40;1.10;;;;;;;14.94;86.13;101615.38;5035690;28;20049;-88
2021/06/07 04:54:04;;;;;;;1.08;0.98;;;;;;;14.76;86.35;101585.91;5039362;28;20057;-88
2021/06/07 05:00:00;;;;;;;1.42;1.02;;;;;;;15.00;86.25;101609.81;5035391;28;20046;-88
2021/06/07 05:02:46;;;;;;;1.40;1.10;;;;;;;14.58;86.67;101590.09;5038607;28;20053;-88
2021/06/07 05:05:41;;;;;;;1.10;1.00;;;;;;;14.83;86.68;101619.28;5043936;28;20076;-87
2021/06/07 05:08:38;;;;;;;1.00;0.95;;;;;;;14.79;86.50;101621.78;5047448;28;20056;-87
2021/06/07 05:11:06;;;;;;;1.33;1.23;;;;;;;14.77;86.92;101607.53;5044985;28;20386;-89
2021/06/07 05:13:38;;;;;;;1.20;1.10;;;;;;;14.89;85.96;101620.06;5038255;28;20048;-88
2021/06/07 05:16:18;;;;;;;1.05;1.00;;;;;;;14.88;86.96;101605.53;5046162;28;20079;-88
2021/06/07 05:19:12;;;;;;;0.93;0.93;;;;;;;15.11;85.05;101619.63;5032861;28;20049;-89
2021/06/07 05:21:52;;;;;;;1.00;0.90;;;;;;;14.96;85.36;101595.88;5034797;28;20049;-89
2021/06/07 05:28:26;;;;;;;0.90;0.90;;;;;;;14.79;86.54;101608.06;5038347;28;20038;-87
2021/06/07 05:31:08;;;;;;;1.08;0.98;;;;;;;14.81;86.77;101604.25;5034620;28;20053;-88
2021/06/07 05:34:12;;;;;;;1.00;0.90;;;;;;;14.87;87.21;101623.06;5034359;28;20061;-89
2021/06/07 05:37:41;;;;;;;1.30;1.00;;;;;;;14.85;86.14;101622.56;5049583;28;20056;-88
2021/06/07 05:40:35;;;;;;;1.10;0.85;;;;;;;14.88;86.58;101624.72;5046779;28;20517;-88
2021/06/07 05:43:16;;;;;;;0.85;0.85;;;;;;;14.71;85.63;101586.75;5031159;28;20056;-88
2021/06/07 05:45:44;;;;;;;0.95;0.88;;;;;;;14.80;86.21;101608.88;5030964;28;20050;-87
2021/06/07 05:49:12;;;;;;;1.00;0.90;;;;;;;14.80;86.79;101625.31;5031722;28;20524;-88
2021/06/07 05:52:31;;;;;;;0.80;0.80;;;;;;;14.95;86.15;101635.34;5030469;28;20053;-86
2021/06/07 05:55:57;;;;;;;0.85;0.80;;;;;;;15.02;86.84;101626.81;5040190;28;20053;-89
2021/06/07 05:58:26;;;;;;;1.00;0.90;;;;;;;15.02;86.28;101626.81;5050653;28;20044;-87
2021/06/07 06:00:57;;;;;;;0.90;0.90;;;;;;;15.09;86.27;101633.63;5049304;28;20063;-88
2021/06/07 06:03:52;;;;;;;1.10;1.00;;;;;;;15.12;86.99;101632.19;5031574;28;20474;-88
2021/06/07 06:06:24;;;;;;;0.93;0.90;;;;;;;14.99;87.05;101605.47;5044874;28;20045;-87
2021/06/07 06:09:53;;;;;;;0.80;0.80;;;;;;;15.32;85.77;101639.44;5035314;28;20409;-87
2021/06/07 06:12:53;;;;;;;1.02;0.93;;;;;;;15.24;85.33;101643.59;5054102;28;20512;-86
2021/06/07 06:15:51;;;;;;;0.80;0.80;;;;;;;15.26;85.77;101644.16;5054526;28;20053;-86
2021/06/07 06:18:25;;;;;;;0.98;0.90;;;;;;;15.09;85.96;101641.84;5053913;28;20529;-89
2021/06/07 06:20:53;;;;;;;0.80;0.80;;;;;;;15.13;86.04;101645.63;5058439;28;20064;-88
2021/06/07 06:23:53;;;;;;;0.85;0.85;;;;;;;15.23;85.93;101642.00;5037225;28;20053;-87
2021/06/07 06:26:34;;;;;;;0.75;0.75;;;;;;;15.25;85.74;101638.97;5033823;28;20065;-87
2021/06/07 06:29:08;;;;;;;0.85;0.85;;;;;;;14.91;86.03;101613.16;5036667;28;20057;-87
2021/06/07 06:31:40;;;;;;;0.80;0.80;;;;;;;15.13;85.79;101625.63;5033850;28;20049;-87
2021/06/07 06:35:13;;;;;;;0.90;0.90;;;;;;;15.30;85.38;101642.47;5050605;28;20060;-87
2021/06/07 06:42:10;;;;;;;0.90;0.80;;;;;;;15.08;85.58;101614.69;5052218;28;20040;-90
2021/06/07 06:49:03;;;;;;;0.80;0.80;;;;;;;15.53;84.24;101641.97;5047856;28;20036;-86
2021/06/07 06:51:36;;;;;;;1.00;0.90;;;;;;;15.33;85.56;101649.31;5049517;28;20053;-84
2021/06/07 06:54:05;;;;;;;0.80;0.80;;;;;;;15.23;85.84;101644.72;5055366;28;20037;-86
2021/06/07 06:56:39;;;;;;;0.95;0.90;;;;;;;15.01;85.33;101611.47;5047443;28;20498;-85
2021/06/07 06:59:37;;;;;;;1.23;1.00;;;;;;;15.46;85.08;101656.84;5040552;28;20501;-88
2021/06/07 07:02:12;;;;;;;0.90;0.90;;;;;;;15.75;85.05;101664.25;5037125;28;20420;-86
2021/06/07 07:04:45;;;;;;;1.00;0.90;;;;;;;15.71;83.93;101654.94;5045420;28;20045;-86
2021/06/07 07:07:22;;;;;;;0.93;0.90;;;;;;;15.94;84.92;101663.53;5043162;28;20516;-86
2021/06/07 07:10:32;;;;;;;0.93;0.85;;;;;;;15.97;84.46;101655.50;5042225;28;20163;-87
2021/06/07 07:13:06;;;;;;;0.73;0.73;;;;;;;16.04;84.19;101660.66;5039748;28;20049;-88
2021/06/07 07:16:07;;;;;;;0.60;0.60;;;;;;;16.25;83.98;101665.91;5055026;28;20048;-86
2021/06/07 07:18:38;;;;;;;0.60;0.60;;;;;;;16.07;82.22;101662.81;5048999;28;20065;-86
2021/06/07 07:21:06;;;;;;;0.50;0.50;;;;;;;16.19;82.14;101667.91;5048824;28;20045;-86
2021/06/07 07:23:44;;;;;;;0.60;0.60;;;;;;;16.29;82.33;101672.44;5049252;28;20057;-86
2021/06/07 07:26:43;;;;;;;0.50;0.50;;;;;;;16.52;81.00;101661.69;5047406;28;20843;-86
2021/06/07 07:29:13;;;;;;;0.45;0.45;;;;;;;16.64;81.08;101656.56;5049007;28;20064;-86
2021/06/07 07:32:39;;;;;;;0.50;0.50;;;;;;;16.82;80.84;101664.00;5047422;28;20053;-86
2021/06/07 07:35:16;;;;;;;0.50;0.50;;;;;;;16.73;80.17;101630.06;5051836;28;20049;-85
2021/06/07 07:37:46;;;;;;;0.50;0.50;;;;;;;16.74;79.50;101661.13;5051548;28;20063;-86
2021/06/07 07:40:22;;;;;;;0.57;0.57;;;;;;;16.75;80.37;101657.22;5052547;28;20060;-86
2021/06/07 07:42:56;;;;;;;0.50;0.50;;;;;;;16.95;81.43;101664.41;5047723;28;20053;-86
2021/06/07 07:45:59;;;;;;;0.50;0.50;;;;;;;16.63;80.37;101665.94;5047905;28;20389;-86
2021/06/07 07:48:36;;;;;;;0.60;0.60;;;;;;;16.70;81.00;101671.06;5049040;28;20048;-86
2021/06/07 07:51:38;;;;;;;0.50;0.50;;;;;;;16.73;79.76;101674.03;5048757;28;20683;-85
2021/06/07 07:54:17;;;;;;;0.50;0.50;;;;;;;16.68;81.17;101660.34;5047679;28;20060;-86
2021/06/07 07:56:51;;;;;;;0.40;0.40;;;;;;;16.72;80.44;101675.13;5045748;28;20052;-83
2021/06/07 07:59:24;;;;;;;0.50;0.50;;;;;;;16.54;80.29;101682.25;5046775;28;20551;-86
2021/06/07 08:01:53;;;;;;;0.40;0.40;;;;;;;16.63;80.52;101679.69;5052065;28;20057;-86
2021/06/07 08:04:27;;;;;;;0.50;0.50;;;;;;;16.52;81.67;101679.00;5049364;28;20057;-85
2021/06/07 08:07:03;;;;;;;0.47;0.47;;;;;;;16.68;79.82;101674.09;5050673;28;20052;-87
2021/06/07 08:09:43;;;;;;;0.40;0.40;;;;;;;17.01;79.89;101674.19;5036794;28;20060;-87
2021/06/07 08:12:16;;;;;;;0.40;0.40;;;;;;;17.29;79.01;101682.53;5043666;28;20111;-88
2021/06/07 08:14:56;;;;;;;0.30;0.30;;;;;;;17.09;78.07;101669.94;5058711;28;20044;-87
2021/06/07 08:17:54;;;;;;;0.40;0.40;;;;;;;17.17;79.24;101686.56;5018488;28;20061;-88
2021/06/07 08:20:29;;;;;;;0.40;0.40;;;;;;;17.50;79.13;101681.06;5045629;28;20050;-87
2021/06/07 08:23:29;;;;;;;0.40;0.40;;;;;;;17.52;77.55;101678.00;5038583;28;20044;-87
2021/06/07 08:26:04;;;;;;;0.30;0.30;;;;;;;17.46;78.65;101666.28;5043931;28;20059;-85
2021/06/07 08:28:42;;;;;;;0.30;0.30;;;;;;;17.32;77.87;101679.19;5051364;28;20044;-88
2021/06/07 08:31:17;;;;;;;0.30;0.30;;;;;;;17.33;77.24;101669.81;5047396;28;20049;-87
2021/06/07 08:33:53;;;;;;;0.30;0.30;;;;;;;17.38;77.70;101671.69;5040389;28;20079;-87
2021/06/07 08:36:21;;;;;;;0.30;0.30;;;;;;;17.32;78.42;101677.25;5046607;28;20054;-87
2021/06/07 08:39:00;;;;;;;0.40;0.40;;;;;;;17.30;78.64;101674.00;5045249;28;20063;-88
2021/06/07 08:41:33;;;;;;;0.30;0.30;;;;;;;17.50;79.03;101664.56;5047307;28;20059;-87
2021/06/07 08:44:10;;;;;;;0.38;0.38;;;;;;;17.50;76.95;101648.03;5044086;28;20614;-88
2021/06/07 08:46:45;;;;;;;0.30;0.30;;;;;;;17.70;78.62;101667.25;5044840;28;20054;-88
2021/06/07 08:49:19;;;;;;;0.30;0.30;;;;;;;17.82;77.09;101667.56;5045464;28;20041;-88
2021/06/07 08:51:53;;;;;;;0.30;0.30;;;;;;;17.87;76.48;101661.13;5043032;28;21651;-90
2021/06/07 08:54:29;;;;;;;0.30;0.30;;;;;;;18.09;76.34;101666.78;5043762;28;20056;-88
2021/06/07 08:57:04;;;;;;;0.30;0.30;;;;;;;18.10;77.27;101662.09;5047215;28;20045;-87
2021/06/07 08:59:39;;;;;;;0.40;0.40;;;;;;;18.24;75.42;101665.63;5036753;28;20486;-87
2021/06/07 09:02:17;;;;;;;0.30;0.30;;;;;;;18.44;72.57;101663.59;5039606;28;20041;-87
2021/06/07 09:04:52;;;;;;;0.40;0.40;;;;;;;18.60;75.08;101644.75;5038147;28;20421;-89
2021/06/07 09:07:24;;;;;;;0.30;0.30;;;;;;;18.76;73.77;101661.75;5042364;28;20123;-88
2021/06/07 09:10:08;;;;;;;0.20;0.20;;;;;;;18.64;72.86;101645.75;5047584;28;20131;-89
2021/06/07 09:12:43;;;;;;;0.20;0.20;;;;;;;18.67;72.22;101661.66;5039884;28;20044;-87
2021/06/07 09:15:28;;;;;;;0.30;0.30;;;;;;;18.91;73.01;101661.41;5042470;28;20052;-87
2021/06/07 09:18:04;;;;;;;0.30;0.30;;;;;;;18.59;72.75;101654.97;5015721;28;20060;-87
2021/06/07 09:21:04;;;;;;;0.40;0.40;;;;;;;18.80;71.94;101654.50;5041456;28;20064;-88
2021/06/07 09:23:40;;;;;;;0.40;0.40;;;;;;;18.97;73.46;101656.59;5041203;28;20053;-87
2021/06/07 09:27:02;;;;;;;0.30;0.30;;;;;;;18.49;74.38;101647.75;5040935;28;20060;-88
2021/06/07 09:30:22;;;;;;;0.32;0.32;;;;;;;18.51;72.65;101650.19;5038936;28;20072;-88
2021/06/07 09:33:16;;;;;;;0.40;0.40;;;;;;;18.45;72.11;101645.91;5039008;28;20909;-87
2021/06/07 09:36:17;;;;;;;0.30;0.30;;;;;;;18.61;72.29;101651.91;5043484;28;20059;-88
2021/06/07 09:39:14;;;;;;;0.50;0.50;;;;;;;18.49;72.98;101650.50;5046978;28;20049;-87
2021/06/07 09:42:18;;;;;;;0.40;0.40;;;;;;;18.86;72.91;101643.03;5043535;28;20055;-88
2021/06/07 09:44:49;;;;;;;0.65;0.40;;;;;;;19.31;71.74;101650.50;5042102;28;20057;-88
2021/06/07 09:47:23;;;;;;;0.43;0.43;;;;;;;19.41;71.36;101643.09;5042595;28;20061;-87
2021/06/07 09:50:03;;;;;;;0.40;0.40;;;;;;;19.26;71.81;101620.25;5043087;28;20060;-88
2021/06/07 09:52:47;;;;;;;0.35;0.35;;;;;;;19.39;71.79;101643.41;5047961;28;20049;-89
2021/06/07 09:55:22;;;;;;;0.40;0.40;;;;;;;19.33;71.54;101642.72;5043272;28;20060;-87
2021/06/07 09:58:30;;;;;;;0.40;0.40;;;;;;;18.89;71.19;101643.53;5045701;28;20057;-88
2021/06/07 10:01:11;;;;;;;0.40;0.40;;;;;;;19.06;71.92;101653.88;5046636;28;20961;-86
2021/06/07 10:03:52;;;;;;;0.30;0.30;;;;;;;19.19;72.11;101651.06;5051549;28;21288;-87
2021/06/07 10:06:29;;;;;;;0.40;0.40;;;;;;;19.54;71.29;101643.00;5044171;28;20064;-87
2021/06/07 10:13:34;;;;;;;0.50;0.50;;;;;;;19.79;71.16;101634.31;5058113;28;20048;-89
2021/06/07 10:16:09;;;;;;;0.40;0.40;;;;;;;20.05;71.91;101638.00;5044201;28;20106;-89
2021/06/07 10:18:50;;;;;;;0.40;0.40;;;;;;;20.13;68.93;101644.66;5048337;28;20088;-87
2021/06/07 10:21:19;;;;;;;0.63;0.40;;;;;;;20.50;69.40;101633.34;5043818;28;20527;-88
2021/06/07 10:23:57;;;;;;;0.40;0.40;;;;;;;19.77;67.34;101625.53;5042845;28;20053;-88
2021/06/07 10:26:35;;;;;;;0.40;0.40;;;;;;;19.93;70.60;101645.25;5044059;28;20063;-88
2021/06/07 10:29:04;;;;;;;0.30;0.30;;;;;;;19.80;68.41;101649.78;5044986;28;20041;-87
2021/06/07 10:31:40;;;;;;;0.40;0.40;;;;;;;19.88;68.52;101638.75;5042622;28;20051;-87
2021/06/07 10:34:14;;;;;;;0.40;0.40;;;;;;;19.77;68.55;101642.09;5047432;28;20064;-87
2021/06/07 10:37:01;;;;;;;0.50;0.50;;;;;;;20.27;70.87;101646.50;5041377;28;20057;-87
2021/06/07 10:39:38;;;;;;;0.40;0.40;;;;;;;20.34;67.01;101639.38;5040888;28;20068;-87
2021/06/07 10:42:23;;;;;;;0.40;0.40;;;;;;;20.46;70.38;101635.13;5043878;28;20060;-87
2021/06/07 10:45:06;;;;;;;0.40;0.40;;;;;;;20.68;70.10;101595.47;5044450;28;20053;-88
2021/06/07 10:47:42;;;;;;;0.30;0.30;;;;;;;20.98;65.81;101634.34;5040907;28;20057;-87
2021/06/07 10:50:13;;;;;;;0.40;0.40;;;;;;;21.08;63.93;101634.00;5039877;28;20063;-87
2021/06/07 10:52:50;;;;;;;0.38;0.38;;;;;;;20.84;64.51;101626.22;5040293;28;20057;-88
2021/06/07 10:55:30;;;;;;;0.35;0.35;;;;;;;20.63;65.11;101637.94;5043112;28;20052;-87
2021/06/07 10:58:00;;;;;;;0.30;0.30;;;;;;;20.94;64.63;101628.66;5058418;28;20052;-86
2021/06/07 11:00:39;;;;;;;0.30;0.30;;;;;;;20.69;64.08;101635.84;5039561;28;20071;-86
2021/06/07 11:03:20;;;;;;;0.30;0.30;;;;;;;20.58;64.17;101627.03;5041375;28;20060;-87
2021/06/07 11:05:59;;;;;;;0.30;0.30;;;;;;;20.83;63.02;101630.13;5038077;28;20049;-88
2021/06/07 11:08:31;;;;;;;0.30;0.30;;;;;;;21.17;62.23;101625.66;5048320;28;20064;-87
2021/06/07 11:11:13;;;;;;;0.20;0.20;;;;;;;21.42;65.19;101629.53;5041094;28;20053;-88
2021/06/07 11:13:47;;;;;;;0.45;0.30;;;;;;;21.24;59.84;101618.50;5039341;28;20061;-87
2021/06/07 11:16:28;;;;;;;0.25;0.25;;;;;;;20.84;58.95;101627.03;5014474;28;20056;-88
2021/06/07 11:19:02;;;;;;;0.20;0.20;;;;;;;20.98;60.49;101626.06;5060819;28;20052;-89
2021/06/07 11:21:32;;;;;;;0.28;0.28;;;;;;;21.08;61.45;101622.13;5041530;28;20052;-89
2021/06/07 11:24:29;;;;;;;0.85;0.20;;;;;;;21.45;61.40;101625.25;5042265;28;20074;-88
2021/06/07 11:27:02;;;;;;;0.28;0.28;;;;;;;21.34;59.57;101597.94;5037520;28;20520;-87
2021/06/07 11:29:30;;;;;;;0.30;0.30;;;;;;;21.71;58.19;101622.44;5043313;28;20045;-87
2021/06/07 11:32:11;;;;;;;0.30;0.30;;;;;;;21.17;59.04;101626.50;5043376;28;20065;-88
2021/06/07 11:34:46;;;;;;;0.20;0.20;;;;;;;21.17;58.41;101629.28;5042571;28;20083;-87
2021/06/07 11:37:46;;;;;;;0.20;0.20;;;;;;;21.17;58.67;101625.66;5040548;28;20056;-88
2021/06/07 11:40:38;;;;;;;0.30;0.30;;;;;;;21.69;60.59;101619.19;5036562;28;20048;-89
2021/06/07 11:43:07;;;;;;;0.25;0.25;;;;;;;21.36;63.58;101622.53;5035017;28;20059;-88
2021/06/07 11:45:43;;;;;;;0.28;0.28;;;;;;;21.26;60.80;101611.81;5036360;28;20056;-86
2021/06/07 11:48:13;;;;;;;0.20;0.20;;;;;;;21.40;59.74;101609.66;5045445;28;20789;-86
2021/06/07 11:50:41;;;;;;;0.30;0.30;;;;;;;21.39;63.39;101602.47;5044730;28;20063;-88
2021/06/07 11:53:17;;;;;;;0.30;0.30;;;;;;;21.98;60.95;101617.56;5040876;28;20055;-88
2021/06/07 11:56:12;;;;;;;0.63;0.20;;;;;;;22.04;56.57;101608.72;5041700;28;20036;-88
2021/06/07 11:58:47;;;;;;;0.20;0.20;;;;;;;22.08;57.42;101611.63;5040141;28;20083;-88
2021/06/07 12:01:18;;;;;;;0.20;0.20;;;;;;;22.14;55.87;101590.88;5044271;28;20061;-89
2021/06/07 12:03:52;;;;;;;0.20;0.20;;;;;;;21.89;54.89;101599.03;5044645;28;20078;-88
2021/06/07 12:06:34;;;;;;;0.20;0.20;;;;;;;22.25;56.76;101592.09;5041007;28;20056;-89
2021/06/07 12:09:06;;;;;;;0.22;0.22;;;;;;;22.15;54.54;101608.31;5044308;28;20060;-88
2021/06/07 12:11:39;;;;;;;0.30;0.30;;;;;;;22.57;59.82;101600.84;5040974;28;20057;-89
2021/06/07 12:14:24;;;;;;;0.20;0.20;;;;;;;22.61;55.99;101594.59;5045922;28;20072;-89
2021/06/07 12:17:03;;;;;;;0.20;0.20;;;;;;;22.96;60.41;101597.88;5018534;28;20065;-89
2021/06/07 12:19:43;;;;;;;0.20;0.20;;;;;;;23.11;60.22;101604.75;5037247;28;20052;-88
2021/06/07 12:22:32;;;;;;;0.20;0.20;;;;;;;23.07;55.31;101596.28;5042305;28;20052;-89
2021/06/07 12:28:19;;;;;;;0.20;0.20;;;;;;;22.61;56.81;101598.22;5030513;28;20049;-88
2021/06/07 12:31:13;;;;;;;0.20;0.20;;;;;;;22.62;55.43;101593.47;5041838;28;20075;-89
2021/06/07 12:33:50;;;;;;;0.20;0.20;;;;;;;22.22;55.61;101592.78;5045132;28;20057;-87
2021/06/07 12:36:22;;;;;;;0.20;0.20;;;;;;;22.31;55.83;101569.72;5039602;28;20049;-88
2021/06/07 12:38:50;;;;;;;0.20;0.20;;;;;;;22.04;55.32;101566.31;5039754;28;20056;-88
2021/06/07 12:41:44;;;;;;;0.20;0.20;;;;;;;21.81;54.19;101594.34;5040628;28;20053;-90
2021/06/07 12:44:13;;;;;;;0.20;0.20;;;;;;;21.76;57.65;101589.00;5038661;28;20040;-88
2021/06/07 12:46:49;;;;;;;0.25;0.25;;;;;;;21.89;56.94;101590.72;5040239;28;20053;-88
2021/06/07 12:49:31;;;;;;;0.10;0.10;;;;;;;21.87;57.03;101581.09;5040825;28;20052;-88
2021/06/07 12:52:03;;;;;;;0.20;0.20;;;;;;;22.11;57.87;101588.78;5040588;28;20053;-87
2021/06/07 12:54:33;;;;;;;0.20;0.20;;;;;;;22.54;57.10;101587.66;5045155;28;20059;-88
2021/06/07 12:57:12;;;;;;;0.20;0.20;;;;;;;22.55;53.73;101569.88;5044698;28;20663;-87
2021/06/07 12:59:49;;;;;;;0.20;0.20;;;;;;;22.45;52.00;101575.81;5039268;28;20049;-88
2021/06/07 13:02:33;;;;;;;0.20;0.20;;;;;;;22.33;53.68;101564.63;5040245;28;20057;-88
2021/06/07 13:05:01;;;;;;;0.20;0.20;;;;;;;21.91;52.32;101508.03;5031514;28;20052;-89
2021/06/07 13:07:30;;;;;;;0.20;0.20;;;;;;;22.60;52.96;101579.94;5035189;28;20075;-88
2021/06/07 13:10:18;;;;;;;0.20;0.20;;;;;;;22.76;51.10;101567.06;5042951;28;20059;-88
2021/06/07 13:12:56;;;;;;;0.20;0.20;;;;;;;22.66;52.11;101558.34;5038668;28;20053;-89
2021/06/07 13:15:29;;;;;;;0.20;0.20;;;;;;;22.81;50.29;101565.22;5038644;28;21576;-87
2021/06/07 13:18:06;;;;;;;0.20;0.20;;;;;;;22.75;50.91;101565.44;5012619;28;20053;-88
2021/06/07 13:20:34;;;;;;;0.20;0.20;;;;;;;22.87;51.51;101570.22;5040633;28;20056;-88
2021/06/07 13:23:30;;;;;;;0.20;0.20;;;;;;;22.85;50.09;101571.72;5042659;28;20076;-89
2021/06/07 13:26:19;;;;;;;0.20;0.20;;;;;;;22.75;56.17;101559.88;5045867;28;20048;-87
2021/06/07 13:29:22;;;;;;;0.13;0.13;;;;;;;23.12;50.22;101566.66;5043392;28;20087;-87
2021/06/07 13:32:11;;;;;;;0.20;0.20;;;;;;;23.05;52.69;101570.03;5045628;28;20085;-87
2021/06/07 13:34:45;;;;;;;0.20;0.20;;;;;;;23.29;49.49;101569.28;5042876;28;20044;-88
2021/06/07 13:37:27;;;;;;;0.20;0.20;;;;;;;23.23;50.07;101571.47;5047893;28;20056;-89
2021/06/07 13:40:00;;;;;;;0.20;0.20;;;;;;;23.42;48.73;101570.09;5048168;28;20060;-88
2021/06/07 13:42:38;;;;;;;0.20;0.20;;;;;;;22.97;51.16;101549.53;5042985;28;20053;-89
2021/06/07 13:45:10;;;;;;;0.20;0.20;;;;;;;22.80;49.16;101558.88;5041261;28;20053;-88
2021/06/07 13:47:40;;;;;;;0.20;0.20;;;;;;;22.87;49.81;101541.63;5041223;28;20053;-87
2021/06/07 13:50:14;;;;;;;0.20;0.20;;;;;;;22.75;48.06;101556.31;5044383;28;20053;-89
2021/06/07 13:52:50;;;;;;;0.20;0.20;;;;;;;22.91;49.71;101553.66;5042062;28;20060;-88